Time;durP1;ratioP1;P1;durP2;ratioP2;P2;SDS_P1;SDS_P2;PMS_P1;PMS_P2;Temp;Humidity;BMP_temperature;BMP_pressure;BME280_temperature;BME280_humidity;BME280_pressure;Samples;Min_cycle;Max_cycle;Signal;HPM_P1;HPM_P2
2023/08/26 00:02:06;;;;;;;4.80;2.45;;;16.60;99.90;;;;;;5026487;28;20045;-74
2023/08/26 00:04:33;;;;;;;4.57;2.38;;;16.60;99.90;;;;;;5025107;28;20057;-74
2023/08/26 00:07:00;;;;;;;4.05;2.17;;;16.60;99.90;;;;;;5042996;28;20056;-76
2023/08/26 00:09:26;;;;;;;3.72;1.98;;;16.60;99.90;;;;;;5035224;28;20041;-75
2023/08/26 00:11:53;;;;;;;2.50;2.00;;;16.60;99.90;;;;;;5027191;28;20036;-73
2023/08/26 00:14:18;;;;;;;3.72;2.10;;;16.50;99.90;;;;;;5045692;28;20406;-75
2023/08/26 00:16:44;;;;;;;3.25;2.05;;;16.50;99.90;;;;;;5046437;28;20055;-73
2023/08/26 00:19:10;;;;;;;4.50;2.53;;;16.50;99.90;;;;;;5044224;28;20060;-74
2023/08/26 00:21:37;;;;;;;6.32;2.97;;;16.50;99.90;;;;;;5047022;28;20496;-72
2023/08/26 00:24:03;;;;;;;3.22;1.83;;;16.50;99.90;;;;;;5028302;28;20049;-72
2023/08/26 00:26:29;;;;;;;2.22;1.75;;;16.40;99.90;;;;;;5045413;28;20411;-74
2023/08/26 00:28:55;;;;;;;2.83;2.50;;;16.40;99.90;;;;;;5028066;28;20045;-73
2023/08/26 00:31:22;;;;;;;2.17;1.95;;;16.40;99.90;;;;;;5044185;28;20045;-75
2023/08/26 00:33:48;;;;;;;6.82;2.22;;;16.40;99.90;;;;;;5046494;28;20041;-74
2023/08/26 00:36:13;;;;;;;2.97;1.80;;;16.30;99.90;;;;;;5011739;28;20130;-73
2023/08/26 00:38:39;;;;;;;3.63;1.58;;;16.30;99.90;;;;;;5044748;28;20373;-73
2023/08/26 00:41:05;;;;;;;2.20;1.70;;;16.20;99.90;;;;;;5046604;28;20041;-73
2023/08/26 00:43:30;;;;;;;4.75;1.83;;;16.30;99.90;;;;;;5044340;28;20087;-74
2023/08/26 00:45:58;;;;;;;3.38;1.52;;;16.20;99.90;;;;;;5045953;28;20503;-72
2023/08/26 00:48:23;;;;;;;1.85;1.70;;;16.20;99.90;;;;;;5045376;28;20037;-73
2023/08/26 00:50:52;;;;;;;2.03;1.73;;;16.10;99.90;;;;;;5027910;28;20483;-74
2023/08/26 00:53:19;;;;;;;2.53;1.65;;;16.10;99.90;;;;;;5026663;28;20064;-75
2023/08/26 00:55:46;;;;;;;1.80;1.20;;;16.10;99.90;;;;;;5044354;28;20045;-72
2023/08/26 00:58:14;;;;;;;2.45;1.48;;;16.00;99.90;;;;;;5044896;28;20040;-75
2023/08/26 01:00:41;;;;;;;4.00;1.98;;;16.00;99.90;;;;;;5028026;28;20543;-75
2023/08/26 01:03:07;;;;;;;1.90;1.60;;;15.90;99.90;;;;;;5028282;28;20198;-73
2023/08/26 01:05:33;;;;;;;2.10;1.60;;;15.90;99.90;;;;;;5115462;22;20113;-73
2023/08/26 01:08:01;;;;;;;2.42;1.48;;;15.90;99.90;;;;;;5073515;28;20105;-72
2023/08/26 01:11:05;;;;;;;1.48;1.23;;;15.80;99.90;;;;;;5047384;28;20064;-73
2023/08/26 01:13:47;;;;;;;3.10;1.40;;;15.80;99.90;;;;;;5069963;28;20497;-72
2023/08/26 01:16:13;;;;;;;;;;;15.80;99.90;;;;;;5048283;28;20041;-73
2023/08/26 01:18:40;;;;;;;1.58;1.30;;;15.80;99.90;;;;;;5048606;28;19924;-74
2023/08/26 01:21:08;;;;;;;1.40;1.30;;;15.70;99.90;;;;;;5048558;28;20047;-72
2023/08/26 01:23:40;;;;;;;1.20;1.10;;;15.70;99.90;;;;;;5047279;28;20355;-72
2023/08/26 01:26:06;;;;;;;2.35;1.67;;;15.60;99.90;;;;;;5047970;28;20044;-73
2023/08/26 01:28:32;;;;;;;2.15;1.50;;;15.70;99.90;;;;;;5065298;28;20497;-75
2023/08/26 01:31:13;;;;;;;2.20;1.63;;;15.70;99.90;;;;;;5031366;28;20512;-73
2023/08/26 01:33:58;;;;;;;1.52;1.35;;;15.70;99.90;;;;;;5047798;28;20040;-75
2023/08/26 01:36:25;;;;;;;1.70;1.60;;;15.60;99.90;;;;;;5047741;28;20044;-76
2023/08/26 01:38:53;;;;;;;5.05;1.60;;;15.60;99.90;;;;;;5063539;28;20055;-74
2023/08/26 01:41:21;;;;;;;2.28;1.80;;;15.60;99.90;;;;;;5027650;28;20074;-74
2023/08/26 01:43:48;;;;;;;2.15;1.70;;;15.50;99.90;;;;;;5011219;28;20045;-75
2023/08/26 01:46:17;;;;;;;4.68;1.98;;;15.40;99.90;;;;;;5024223;28;20044;-75
2023/08/26 01:48:43;;;;;;;3.72;1.70;;;15.40;99.90;;;;;;5047835;28;20048;-74
2023/08/26 01:51:09;;;;;;;1.98;1.40;;;15.40;99.90;;;;;;5064710;28;20800;-76
2023/08/26 01:53:34;;;;;;;3.53;1.80;;;15.30;99.90;;;;;;5064811;28;20517;-74
2023/08/26 01:56:00;;;;;;;3.17;1.55;;;15.30;99.90;;;;;;5047032;28;20574;-73
2023/08/26 01:58:26;;;;;;;4.82;1.83;;;15.30;99.90;;;;;;5030949;28;20044;-74
2023/08/26 02:00:52;;;;;;;2.92;1.85;;;15.20;99.90;;;;;;5078885;28;20048;-73
2023/08/26 02:03:17;;;;;;;2.00;1.38;;;15.20;99.90;;;;;;5075505;28;20048;-74
2023/08/26 02:05:43;;;;;;;2.13;1.75;;;15.10;99.90;;;;;;5065602;28;20036;-75
2023/08/26 02:08:09;;;;;;;7.22;1.88;;;15.10;99.90;;;;;;5083741;28;20048;-75
2023/08/26 02:10:34;;;;;;;4.55;1.92;;;15.00;99.90;;;;;;5067098;28;20127;-75
2023/08/26 02:13:00;;;;;;;4.00;2.25;;;15.00;99.90;;;;;;5067078;28;20047;-74
2023/08/26 02:15:26;;;;;;;2.53;1.52;;;15.00;99.90;;;;;;5060468;28;20500;-74
2023/08/26 02:17:52;;;;;;;2.20;1.83;;;15.00;99.90;;;;;;5064629;28;20087;-73
2023/08/26 02:20:17;;;;;;;8.07;1.85;;;15.00;99.90;;;;;;5064446;28;20127;-73
2023/08/26 02:22:43;;;;;;;1.58;1.45;;;15.00;99.90;;;;;;5064854;28;20048;-74
2023/08/26 02:25:08;;;;;;;2.10;1.88;;;15.00;99.90;;;;;;5063060;28;20044;-77
2023/08/26 02:27:34;;;;;;;4.75;1.20;;;15.00;99.90;;;;;;5064993;28;20045;-75
2023/08/26 02:29:59;;;;;;;3.45;2.72;;;14.90;99.90;;;;;;5029580;28;20071;-73
2023/08/26 02:32:25;;;;;;;1.98;1.50;;;14.90;99.90;;;;;;5045951;28;20091;-73
2023/08/26 02:34:51;;;;;;;13.48;2.13;;;14.90;99.90;;;;;;5046941;28;20045;-74
2023/08/26 02:37:16;;;;;;;2.08;1.70;;;14.90;99.90;;;;;;5068200;28;20040;-73
2023/08/26 02:39:42;;;;;;;2.30;1.38;;;14.80;99.90;;;;;;5065322;28;20052;-75
2023/08/26 02:42:07;;;;;;;1.92;1.45;;;14.80;99.90;;;;;;5066258;28;20076;-76
2023/08/26 02:44:33;;;;;;;1.80;1.65;;;14.80;99.90;;;;;;5057906;28;20083;-74
2023/08/26 02:46:59;;;;;;;2.25;1.73;;;14.80;99.90;;;;;;5064012;28;20486;-72
2023/08/26 02:49:26;;;;;;;3.58;1.60;;;14.80;99.90;;;;;;5063856;28;20036;-74
2023/08/26 02:51:52;;;;;;;1.55;1.45;;;14.80;99.90;;;;;;5046224;28;20041;-75
2023/08/26 02:54:17;;;;;;;2.38;1.50;;;14.70;99.90;;;;;;5062762;28;20041;-73
2023/08/26 02:56:43;;;;;;;2.60;1.85;;;14.70;99.90;;;;;;5063832;28;20632;-74
2023/08/26 02:59:08;;;;;;;1.75;1.17;;;14.70;99.90;;;;;;5064223;28;20041;-76
2023/08/26 03:01:37;;;;;;;2.08;1.50;;;14.70;99.90;;;;;;5046464;28;20546;-73
2023/08/26 03:04:03;;;;;;;2.05;1.50;;;14.70;99.90;;;;;;5045893;28;20703;-74
2023/08/26 03:06:30;;;;;;;2.60;1.77;;;14.70;99.90;;;;;;5063513;28;20100;-73
2023/08/26 03:08:55;;;;;;;2.80;1.95;;;14.70;99.90;;;;;;5028568;28;20127;-75
2023/08/26 03:11:22;;;;;;;2.38;1.63;;;14.70;99.90;;;;;;5029438;28;20144;-75
2023/08/26 03:13:49;;;;;;;3.15;1.30;;;14.70;99.90;;;;;;5046168;28;20047;-73
2023/08/26 03:16:15;;;;;;;2.50;1.52;;;14.70;99.90;;;;;;5045284;28;20036;-73
2023/08/26 03:18:40;;;;;;;2.13;1.30;;;14.60;99.90;;;;;;5046390;28;20033;-75
2023/08/26 03:21:07;;;;;;;3.55;1.70;;;14.70;99.90;;;;;;5046283;28;20080;-73
2023/08/26 03:23:37;;;;;;;2.25;1.92;;;14.70;99.90;;;;;;5045007;28;20045;-75
2023/08/26 03:26:03;;;;;;;2.38;1.92;;;14.70;99.90;;;;;;5045802;28;20063;-75
2023/08/26 03:28:29;;;;;;;3.22;1.80;;;14.70;99.90;;;;;;5063777;28;20059;-73
2023/08/26 03:31:02;;;;;;;2.20;1.80;;;14.70;99.90;;;;;;5063683;28;20037;-74
2023/08/26 03:33:27;;;;;;;4.63;2.10;;;14.70;99.90;;;;;;5045433;28;20866;-73
2023/08/26 03:35:53;;;;;;;2.30;1.83;;;14.70;99.90;;;;;;5029408;28;20127;-73
2023/08/26 03:38:18;;;;;;;2.20;1.70;;;14.70;99.90;;;;;;5062483;28;20032;-73
2023/08/26 03:40:44;;;;;;;2.45;1.65;;;14.70;99.90;;;;;;5045567;28;20041;-74
2023/08/26 03:43:09;;;;;;;2.30;2.10;;;14.70;99.90;;;;;;5032806;28;20032;-73
2023/08/26 03:45:35;;;;;;;2.03;1.80;;;14.60;99.90;;;;;;5050012;28;20044;-75
2023/08/26 03:48:01;;;;;;;2.15;1.70;;;14.60;99.90;;;;;;5067728;28;20116;-73
2023/08/26 03:50:26;;;;;;;2.40;1.75;;;14.60;99.90;;;;;;5049189;28;20040;-74
2023/08/26 03:52:52;;;;;;;3.92;2.10;;;14.50;99.90;;;;;;5066707;28;20036;-75
2023/08/26 03:55:17;;;;;;;2.85;1.90;;;14.50;99.90;;;;;;5048794;28;20079;-74
2023/08/26 03:57:43;;;;;;;2.55;1.90;;;14.50;99.90;;;;;;5067521;28;20119;-75
2023/08/26 04:00:09;;;;;;;1.92;1.73;;;14.50;99.90;;;;;;5049214;28;20136;-75
2023/08/26 04:02:35;;;;;;;5.90;1.88;;;14.40;99.90;;;;;;5049851;28;20479;-73
2023/08/26 04:05:01;;;;;;;4.22;2.10;;;14.40;99.90;;;;;;5067325;28;20131;-73
2023/08/26 04:07:26;;;;;;;2.20;2.00;;;14.40;99.90;;;;;;5048630;28;20052;-73
2023/08/26 04:09:52;;;;;;;2.58;1.60;;;14.40;99.90;;;;;;5066724;28;20087;-75
2023/08/26 04:12:17;;;;;;;2.05;1.83;;;14.30;99.90;;;;;;5048866;28;20056;-74
2023/08/26 04:14:43;;;;;;;2.97;1.90;;;14.30;99.90;;;;;;5049132;28;20509;-75
2023/08/26 04:17:09;;;;;;;3.03;2.00;;;14.30;99.90;;;;;;5067222;28;20048;-74
2023/08/26 04:19:34;;;;;;;1.98;1.77;;;14.30;99.90;;;;;;5049069;28;20087;-75
2023/08/26 04:22:01;;;;;;;3.83;2.15;;;14.20;99.90;;;;;;5067238;28;20593;-74
2023/08/26 04:24:27;;;;;;;3.55;2.22;;;14.20;99.90;;;;;;5047918;28;20045;-73
2023/08/26 04:26:53;;;;;;;2.30;1.90;;;14.20;99.90;;;;;;5066529;28;20108;-74
2023/08/26 04:29:18;;;;;;;2.95;2.17;;;14.20;99.90;;;;;;5066660;28;20131;-73
2023/08/26 04:31:44;;;;;;;2.55;1.98;;;14.20;99.90;;;;;;5032332;28;20040;-75
2023/08/26 04:34:11;;;;;;;3.17;1.92;;;14.10;99.90;;;;;;5048830;28;20394;-74
2023/08/26 04:36:36;;;;;;;5.35;1.95;;;14.00;99.90;;;;;;5049181;28;20441;-75
2023/08/26 04:39:06;;;;;;;3.55;1.80;;;14.00;99.90;;;;;;5047769;28;20033;-74
2023/08/26 04:41:32;;;;;;;2.70;2.10;;;14.00;99.90;;;;;;5048604;28;20053;-75
2023/08/26 04:43:58;;;;;;;3.83;2.03;;;14.00;99.90;;;;;;5066466;28;20398;-73
2023/08/26 04:46:23;;;;;;;10.75;2.13;;;13.90;99.90;;;;;;5066271;28;20133;-74
2023/08/26 04:48:49;;;;;;;2.42;1.90;;;13.90;99.90;;;;;;5048756;28;20076;-73
2023/08/26 04:51:15;;;;;;;5.82;1.85;;;13.90;99.90;;;;;;5066269;28;20109;-73
2023/08/26 04:53:40;;;;;;;3.42;1.88;;;13.90;99.90;;;;;;5065213;28;20409;-75
2023/08/26 04:56:06;;;;;;;2.72;1.92;;;13.90;99.90;;;;;;5048841;28;20044;-73
2023/08/26 04:58:31;;;;;;;3.35;2.03;;;14.00;99.90;;;;;;5065775;28;20048;-75
2023/08/26 05:00:57;;;;;;;3.30;1.80;;;13.90;99.90;;;;;;5048734;28;20549;-73
2023/08/26 05:03:23;;;;;;;4.35;2.33;;;14.00;99.90;;;;;;5065490;28;20452;-73
2023/08/26 05:05:48;;;;;;;2.83;1.85;;;14.00;99.90;;;;;;5048314;28;20044;-74
2023/08/26 05:08:14;;;;;;;2.80;1.75;;;14.00;99.90;;;;;;5046909;28;20157;-73
2023/08/26 05:10:41;;;;;;;5.45;2.28;;;14.00;99.90;;;;;;5066166;28;20140;-75
2023/08/26 05:13:07;;;;;;;3.80;1.92;;;14.10;99.90;;;;;;5066701;28;20055;-73
2023/08/26 05:15:33;;;;;;;2.83;2.20;;;14.10;99.90;;;;;;5065860;28;20036;-75
2023/08/26 05:17:58;;;;;;;2.97;1.95;;;14.10;99.90;;;;;;5065482;28;20086;-72
2023/08/26 05:20:24;;;;;;;3.17;2.28;;;14.10;99.90;;;;;;5065550;28;20050;-73
2023/08/26 05:22:49;;;;;;;2.97;1.58;;;14.10;99.90;;;;;;5065044;28;20102;-75
2023/08/26 05:25:15;;;;;;;3.22;2.45;;;14.20;99.90;;;;;;5047598;28;20048;-73
2023/08/26 05:27:41;;;;;;;3.25;2.13;;;14.20;99.90;;;;;;5031399;28;20116;-74
2023/08/26 05:30:07;;;;;;;4.25;1.77;;;14.20;99.90;;;;;;5048066;28;20051;-75
2023/08/26 05:32:33;;;;;;;2.50;2.22;;;14.30;99.90;;;;;;5065812;28;20041;-73
2023/08/26 05:34:58;;;;;;;2.80;2.47;;;14.30;99.90;;;;;;5065844;28;20050;-74
2023/08/26 05:37:24;;;;;;;6.07;2.22;;;14.40;99.90;;;;;;5046323;28;20040;-74
2023/08/26 05:39:49;;;;;;;4.53;1.75;;;14.40;99.90;;;;;;5047501;28;20048;-74
2023/08/26 05:42:15;;;;;;;3.05;2.25;;;14.40;99.90;;;;;;5031103;28;20037;-73
2023/08/26 05:44:41;;;;;;;2.28;2.08;;;14.50;99.90;;;;;;5046769;28;20036;-74
2023/08/26 05:47:06;;;;;;;5.13;2.38;;;14.50;99.90;;;;;;5048044;28;20437;-73
2023/08/26 05:49:32;;;;;;;4.65;1.98;;;14.60;99.90;;;;;;5046897;28;20045;-72
2023/08/26 05:51:57;;;;;;;3.30;1.92;;;14.60;99.90;;;;;;5041194;28;20052;-75
2023/08/26 05:54:23;;;;;;;4.90;2.90;;;14.70;99.90;;;;;;5026526;28;20392;-73
2023/08/26 05:56:48;;;;;;;10.02;3.17;;;14.80;99.90;;;;;;5027238;28;20045;-73
2023/08/26 05:59:14;;;;;;;4.20;3.10;;;14.90;99.90;;;;;;5044662;28;20124;-74
2023/08/26 06:01:40;;;;;;;4.57;3.60;;;14.90;99.90;;;;;;5045906;28;20623;-73
2023/08/26 06:04:06;;;;;;;5.43;3.15;;;15.00;99.90;;;;;;5047410;28;20040;-75
2023/08/26 06:06:32;;;;;;;4.75;2.63;;;15.10;99.90;;;;;;5045497;28;20056;-73
2023/08/26 06:08:58;;;;;;;5.28;2.83;;;15.10;99.90;;;;;;5063847;28;20048;-75
2023/08/26 06:11:24;;;;;;;3.97;2.55;;;15.20;99.90;;;;;;5064711;28;20040;-73
2023/08/26 06:13:50;;;;;;;6.68;3.28;;;15.20;99.90;;;;;;5064694;28;20170;-73
2023/08/26 06:16:19;;;;;;;4.68;3.20;;;15.30;99.90;;;;;;5064327;28;20141;-75
2023/08/26 06:18:48;;;;;;;4.82;3.15;;;15.20;99.90;;;;;;5064863;28;20101;-73
2023/08/26 06:21:14;;;;;;;4.43;2.53;;;15.30;99.90;;;;;;5046761;28;20388;-73
2023/08/26 06:23:40;;;;;;;4.45;3.22;;;15.30;99.90;;;;;;5046104;28;20044;-74
2023/08/26 06:26:06;;;;;;;9.30;3.00;;;15.30;99.90;;;;;;5047379;28;20059;-73
2023/08/26 06:28:32;;;;;;;5.45;3.03;;;15.30;99.90;;;;;;5046436;28;20053;-72
2023/08/26 06:30:59;;;;;;;7.30;3.20;;;15.30;99.90;;;;;;5046706;28;20394;-75
2023/08/26 06:33:26;;;;;;;4.25;3.42;;;15.30;99.90;;;;;;5046120;28;20052;-74
2023/08/26 06:35:51;;;;;;;5.32;3.45;;;15.40;99.90;;;;;;5055384;28;20424;-73
2023/08/26 06:38:18;;;;;;;5.03;3.28;;;15.40;99.90;;;;;;5044832;28;20037;-73
2023/08/26 06:40:51;;;;;;;5.95;3.55;;;15.40;99.90;;;;;;5028171;28;20036;-74
2023/08/26 06:43:17;;;;;;;6.72;3.22;;;15.40;99.90;;;;;;5076612;28;20373;-75
2023/08/26 06:45:43;;;;;;;7.28;3.63;;;15.40;99.90;;;;;;5042882;28;20840;-73
2023/08/26 06:48:09;;;;;;;6.60;4.13;;;15.40;99.90;;;;;;5044247;28;20086;-75
2023/08/26 06:50:34;;;;;;;7.07;4.22;;;15.50;99.90;;;;;;5045774;28;20083;-73
2023/08/26 06:53:00;;;;;;;8.15;4.35;;;15.50;99.90;;;;;;5044540;28;20041;-74
2023/08/26 06:55:26;;;;;;;7.18;4.05;;;15.60;99.90;;;;;;5044596;28;20128;-75
2023/08/26 06:57:51;;;;;;;8.20;3.60;;;15.70;99.90;;;;;;5063268;28;20475;-73
2023/08/26 07:00:18;;;;;;;6.57;4.40;;;15.80;99.90;;;;;;5063478;28;20052;-75
2023/08/26 07:02:43;;;;;;;8.70;5.22;;;15.90;99.90;;;;;;5054732;28;20048;-74
2023/08/26 07:05:09;;;;;;;9.25;4.88;;;15.90;99.90;;;;;;5045235;28;20123;-76
2023/08/26 07:07:36;;;;;;;10.77;5.18;;;16.10;99.90;;;;;;5068404;28;20513;-74
2023/08/26 07:10:02;;;;;;;9.88;5.35;;;16.20;99.90;;;;;;5045428;28;20102;-74
2023/08/26 07:12:28;;;;;;;9.05;5.63;;;16.20;99.90;;;;;;5070854;28;20087;-74
2023/08/26 07:14:54;;;;;;;7.90;5.20;;;16.30;99.90;;;;;;5067800;28;20040;-76
2023/08/26 07:17:19;;;;;;;10.98;5.72;;;16.40;99.90;;;;;;5076053;28;20063;-74
2023/08/26 07:19:48;;;;;;;9.70;5.60;;;16.50;99.90;;;;;;5054414;28;20072;-79
2023/08/26 07:22:13;;;;;;;9.48;5.55;;;16.60;99.90;;;;;;5043426;28;20393;-74
2023/08/26 07:24:39;;;;;;;8.80;5.13;;;16.70;99.90;;;;;;5051599;28;20032;-75
2023/08/26 07:27:05;;;;;;;13.23;6.05;;;16.80;99.90;;;;;;5062122;28;20051;-74
2023/08/26 07:29:33;;;;;;;10.13;6.32;;;16.90;99.90;;;;;;5072674;28;20051;-75
2023/08/26 07:31:59;;;;;;;13.57;6.25;;;16.90;99.90;;;;;;5045655;28;20140;-74
2023/08/26 07:34:24;;;;;;;12.35;7.10;;;17.00;99.90;;;;;;5053872;28;20578;-74
2023/08/26 07:36:50;;;;;;;10.05;6.13;;;17.10;99.90;;;;;;5043374;28;20033;-76
2023/08/26 07:39:15;;;;;;;10.02;6.40;;;17.20;99.90;;;;;;5044770;28;20048;-75
2023/08/26 07:41:41;;;;;;;8.23;5.43;;;17.30;99.90;;;;;;5045359;28;20041;-75
2023/08/26 07:44:07;;;;;;;8.93;4.40;;;17.30;99.90;;;;;;5046005;28;20044;-74
2023/08/26 07:46:32;;;;;;;6.68;3.85;;;17.30;99.90;;;;;;5044852;28;20043;-74
2023/08/26 07:48:58;;;;;;;6.35;3.88;;;17.30;99.90;;;;;;5044706;28;20414;-75
2023/08/26 07:51:23;;;;;;;5.93;4.40;;;17.20;99.90;;;;;;5045115;28;20045;-74
2023/08/26 07:53:49;;;;;;;5.13;3.78;;;17.20;99.90;;;;;;5065336;28;20131;-76
2023/08/26 07:56:15;;;;;;;8.43;3.17;;;17.20;99.90;;;;;;5060371;28;20159;-74
2023/08/26 07:58:40;;;;;;;4.97;3.20;;;17.20;99.90;;;;;;5039078;28;20041;-73
2023/08/26 08:01:06;;;;;;;6.32;3.47;;;17.20;99.90;;;;;;5031376;28;20045;-75
2023/08/26 08:03:31;;;;;;;3.88;2.60;;;17.30;99.90;;;;;;5038956;28;20693;-74
2023/08/26 08:05:57;;;;;;;5.25;3.30;;;17.30;99.90;;;;;;5068060;28;20295;-72
2023/08/26 08:08:24;;;;;;;4.00;2.80;;;17.30;99.90;;;;;;5039687;28;20052;-74
2023/08/26 08:10:50;;;;;;;8.40;3.63;;;17.30;99.90;;;;;;5044945;28;20048;-72
2023/08/26 08:13:16;;;;;;;3.08;2.10;;;17.30;99.90;;;;;;5046568;28;20379;-74
2023/08/26 08:15:42;;;;;;;1.77;1.50;;;17.40;99.90;;;;;;5045032;28;20121;-73
2023/08/26 08:18:07;;;;;;;3.33;1.70;;;17.40;99.90;;;;;;5062922;28;20040;-76
2023/08/26 08:20:33;;;;;;;3.35;1.73;;;17.30;99.90;;;;;;5059500;28;20052;-76
2023/08/26 08:22:59;;;;;;;1.80;1.58;;;17.30;99.90;;;;;;5057117;28;20119;-73
2023/08/26 08:25:24;;;;;;;1.85;1.30;;;17.30;99.90;;;;;;5061029;28;20133;-75
2023/08/26 08:27:50;;;;;;;2.33;1.48;;;17.30;99.90;;;;;;5043030;28;20040;-79
2023/08/26 08:30:16;;;;;;;0.90;0.77;;;17.20;99.90;;;;;;5042759;28;20506;-75
2023/08/26 08:32:42;;;;;;;0.68;0.65;;;17.20;99.90;;;;;;5060067;28;20071;-76
2023/08/26 08:35:08;;;;;;;1.45;0.93;;;17.30;99.90;;;;;;5051385;28;20038;-76
2023/08/26 08:37:34;;;;;;;1.23;1.13;;;17.20;99.90;;;;;;5065811;28;20052;-73
2023/08/26 08:39:59;;;;;;;0.70;0.70;;;17.30;99.90;;;;;;5064026;28;20037;-73
2023/08/26 08:42:26;;;;;;;1.70;0.90;;;17.40;99.90;;;;;;5069318;28;20056;-73
2023/08/26 08:44:53;;;;;;;1.20;1.13;;;17.40;99.90;;;;;;5058750;28;20040;-76
2023/08/26 08:47:19;;;;;;;3.13;1.10;;;17.50;99.90;;;;;;5049786;28;20422;-72
2023/08/26 08:49:45;;;;;;;2.42;0.95;;;17.50;99.90;;;;;;5028251;28;20106;-76
2023/08/26 08:52:11;;;;;;;2.85;1.15;;;17.60;99.90;;;;;;5064889;28;20032;-72
2023/08/26 08:54:37;;;;;;;0.93;0.80;;;17.60;99.90;;;;;;5043432;28;20052;-73
2023/08/26 08:57:04;;;;;;;2.75;0.80;;;17.60;99.90;;;;;;5057183;28;20037;-73
2023/08/26 08:59:32;;;;;;;1.08;0.70;;;17.60;99.90;;;;;;5027555;28;20044;-72
2023/08/26 09:01:59;;;;;;;2.10;0.70;;;17.60;99.90;;;;;;5065257;28;20076;-75
2023/08/26 09:04:28;;;;;;;1.70;0.60;;;17.60;99.90;;;;;;5064874;28;20072;-73
2023/08/26 09:06:54;;;;;;;1.27;1.13;;;17.70;99.90;;;;;;5063640;28;20053;-74
2023/08/26 09:09:21;;;;;;;2.10;0.88;;;17.70;99.90;;;;;;5030027;28;20133;-72
2023/08/26 09:11:48;;;;;;;2.25;0.85;;;17.70;99.90;;;;;;5046121;28;20550;-76
2023/08/26 09:14:13;;;;;;;0.82;0.80;;;17.80;99.90;;;;;;5064726;28;20111;-74
2023/08/26 09:16:43;;;;;;;3.13;1.30;;;17.80;99.90;;;;;;5068298;28;20139;-73
2023/08/26 09:19:10;;;;;;;2.95;1.10;;;17.80;99.90;;;;;;5044637;28;20102;-77
2023/08/26 09:21:47;;;;;;;1.90;1.55;;;17.80;99.90;;;;;;5067019;28;20036;-74
2023/08/26 09:24:17;;;;;;;2.22;1.73;;;17.80;99.90;;;;;;5036673;28;20048;-73
2023/08/26 09:26:59;;;;;;;2.17;1.60;;;17.90;99.90;;;;;;5040780;28;20040;-73
2023/08/26 09:29:25;;;;;;;2.30;1.15;;;18.00;99.90;;;;;;5050899;28;20053;-71
2023/08/26 09:31:55;;;;;;;1.58;1.08;;;18.10;99.90;;;;;;5027490;28;20123;-73
2023/08/26 09:34:32;;;;;;;1.48;1.38;;;18.10;99.90;;;;;;5046690;28;20059;-72
2023/08/26 09:37:01;;;;;;;1.88;0.85;;;18.00;99.90;;;;;;5061637;28;20087;-71
2023/08/26 09:39:26;;;;;;;1.08;0.98;;;18.00;99.90;;;;;;5060861;28;20367;-76
2023/08/26 09:41:55;;;;;;;1.40;1.02;;;17.90;99.90;;;;;;5042737;28;20048;-74
2023/08/26 09:44:21;;;;;;;3.08;1.70;;;17.90;99.90;;;;;;5063329;28;20052;-75
2023/08/26 09:46:47;;;;;;;1.90;1.55;;;17.80;99.90;;;;;;5066883;28;20032;-74
2023/08/26 09:49:17;;;;;;;2.15;1.70;;;17.80;99.90;;;;;;5034330;28;20123;-73
2023/08/26 09:51:51;;;;;;;3.58;2.05;;;17.70;99.90;;;;;;5064966;28;20297;-73
2023/08/26 09:54:19;;;;;;;8.27;2.80;;;17.70;99.90;;;;;;5062736;28;20051;-73
2023/08/26 09:56:46;;;;;;;5.18;3.05;;;17.60;99.90;;;;;;5048202;28;20515;-73
2023/08/26 09:59:12;;;;;;;7.97;3.33;;;17.70;99.90;;;;;;5063851;28;20047;-77
2023/08/26 10:01:39;;;;;;;5.00;3.58;;;17.70;99.90;;;;;;5046866;28;20447;-75
2023/08/26 10:04:20;;;;;;;5.35;3.28;;;17.70;99.90;;;;;;5048305;28;20079;-75
2023/08/26 10:06:57;;;;;;;4.22;3.17;;;17.70;99.90;;;;;;5029679;28;20522;-75
2023/08/26 10:09:43;;;;;;;4.60;2.67;;;17.70;99.90;;;;;;5042719;28;20049;-75
2023/08/26 10:12:20;;;;;;;2.40;2.20;;;17.70;99.90;;;;;;5074867;28;20044;-77
2023/08/26 10:14:49;;;;;;;2.75;2.33;;;17.70;99.90;;;;;;5032220;28;20144;-76
2023/08/26 10:17:19;;;;;;;3.38;2.42;;;17.80;99.90;;;;;;5052697;28;20079;-78
2023/08/26 10:19:46;;;;;;;2.30;1.98;;;17.80;99.90;;;;;;5077995;28;20194;-80
2023/08/26 10:22:13;;;;;;;2.60;2.15;;;17.90;99.90;;;;;;5058517;28;20043;-78
2023/08/26 10:24:39;;;;;;;2.95;1.70;;;18.00;99.90;;;;;;5049943;28;20038;-78
2023/08/26 10:27:09;;;;;;;1.40;1.25;;;18.00;99.90;;;;;;5072368;28;20033;-78
2023/08/26 10:29:38;;;;;;;1.60;1.50;;;18.10;99.90;;;;;;5061762;28;20052;-76
2023/08/26 10:32:18;;;;;;;1.30;1.20;;;18.00;99.90;;;;;;5062620;28;20045;-76
2023/08/26 10:34:56;;;;;;;1.55;1.08;;;18.00;99.90;;;;;;5066394;28;20036;-74
2023/08/26 10:37:25;;;;;;;0.70;0.70;;;18.00;99.90;;;;;;5057103;28;20033;-73
2023/08/26 10:39:51;;;;;;;0.90;0.70;;;18.00;99.90;;;;;;5046075;28;20189;-74
2023/08/26 10:42:18;;;;;;;0.93;0.70;;;18.00;99.90;;;;;;5064238;28;20041;-74
2023/08/26 10:44:55;;;;;;;3.20;1.00;;;18.00;99.90;;;;;;5046578;28;20080;-74
2023/08/26 10:47:46;;;;;;;0.80;0.80;;;18.10;99.90;;;;;;5060173;28;20517;-76
2023/08/26 10:50:22;;;;;;;2.67;1.60;;;18.20;99.90;;;;;;5026823;28;20310;-74
2023/08/26 10:52:53;;;;;;;0.98;0.88;;;18.30;99.90;;;;;;5069686;28;20048;-73
2023/08/26 10:55:27;;;;;;;1.38;1.27;;;18.30;99.90;;;;;;5026998;28;20051;-73
2023/08/26 10:58:09;;;;;;;1.00;1.00;;;18.30;99.90;;;;;;5063236;28;20051;-73
2023/08/26 11:00:37;;;;;;;1.63;1.50;;;18.40;99.90;;;;;;5055169;28;20044;-73
2023/08/26 11:03:05;;;;;;;2.08;1.50;;;18.50;99.90;;;;;;5053396;28;20120;-73
2023/08/26 11:05:31;;;;;;;1.17;1.08;;;18.50;99.90;;;;;;5044252;28;20123;-73
2023/08/26 11:07:57;;;;;;;1.63;1.50;;;18.50;99.90;;;;;;5061818;28;20127;-73
2023/08/26 11:10:29;;;;;;;1.95;1.55;;;18.70;99.90;;;;;;5044948;28;20094;-73
2023/08/26 11:12:55;;;;;;;1.60;1.50;;;18.70;99.90;;;;;;5028554;28;20045;-72
2023/08/26 11:15:21;;;;;;;1.33;1.10;;;18.70;99.90;;;;;;5062984;28;20379;-74
2023/08/26 11:17:48;;;;;;;2.53;0.90;;;18.80;99.90;;;;;;5062623;28;20433;-72
2023/08/26 11:20:16;;;;;;;3.50;1.48;;;18.80;99.90;;;;;;5044281;28;20099;-72
2023/08/26 11:22:43;;;;;;;2.25;1.23;;;18.80;99.90;;;;;;5043747;28;20037;-74
2023/08/26 11:25:13;;;;;;;1.75;0.85;;;18.90;99.90;;;;;;5041486;28;20119;-76
2023/08/26 11:27:39;;;;;;;0.70;0.70;;;18.80;99.90;;;;;;5047864;28;20049;-73
2023/08/26 11:30:10;;;;;;;1.27;0.80;;;18.70;99.90;;;;;;5061614;28;20068;-72
2023/08/26 11:32:37;;;;;;;1.98;0.90;;;18.70;99.90;;;;;;5049260;28;20045;-71
2023/08/26 11:35:04;;;;;;;2.25;1.30;;;18.70;99.90;;;;;;5029762;28;20490;-74
2023/08/26 11:37:41;;;;;;;2.47;0.80;;;18.70;99.90;;;;;;5034091;28;20062;-75
2023/08/26 11:40:08;;;;;;;4.00;1.02;;;18.70;99.90;;;;;;5056609;28;20037;-75
2023/08/26 11:42:34;;;;;;;2.40;0.90;;;18.70;99.90;;;;;;5015918;28;20080;-73
2023/08/26 11:44:59;;;;;;;4.70;1.17;;;18.70;99.90;;;;;;5063539;28;20719;-80
2023/08/26 11:47:25;;;;;;;2.10;0.93;;;18.70;99.90;;;;;;5063333;28;20077;-79
2023/08/26 11:49:55;;;;;;;3.78;0.98;;;18.70;99.90;;;;;;5062903;28;20412;-72
2023/08/26 11:52:30;;;;;;;0.90;0.70;;;18.70;99.90;;;;;;5064569;28;20044;-72
2023/08/26 11:54:55;;;;;;;2.50;1.00;;;18.70;99.90;;;;;;5045705;28;20045;-71
2023/08/26 11:57:22;;;;;;;1.98;0.75;;;18.70;99.90;;;;;;5061086;28;20074;-74
2023/08/26 11:59:48;;;;;;;1.60;0.80;;;18.70;99.90;;;;;;5060062;28;20048;-72
2023/08/26 12:02:24;;;;;;;0.60;0.60;;;18.80;99.90;;;;;;5043484;28;20089;-72
2023/08/26 12:04:58;;;;;;;1.10;1.00;;;18.70;99.90;;;;;;5065824;28;20395;-73
2023/08/26 12:07:24;;;;;;;0.80;0.80;;;18.70;99.90;;;;;;5018909;28;20121;-71
2023/08/26 12:09:50;;;;;;;1.42;0.55;;;18.60;99.90;;;;;;5037896;28;20041;-70
2023/08/26 12:12:20;;;;;;;0.63;0.63;;;18.50;99.90;;;;;;5049271;28;20093;-73
2023/08/26 12:14:46;;;;;;;0.80;0.77;;;18.50;99.90;;;;;;5066589;28;20123;-70
2023/08/26 12:17:12;;;;;;;1.65;0.73;;;18.50;99.90;;;;;;5057469;28;20043;-72
2023/08/26 12:19:39;;;;;;;1.15;0.90;;;18.50;99.90;;;;;;5042844;28;20676;-74
2023/08/26 12:22:05;;;;;;;0.80;0.80;;;18.60;99.90;;;;;;5047104;28;20044;-71
2023/08/26 12:24:31;;;;;;;1.15;0.90;;;18.70;99.90;;;;;;5059040;28;20112;-71
2023/08/26 12:27:09;;;;;;;1.27;1.17;;;18.70;99.90;;;;;;5039009;28;20210;-71
2023/08/26 12:29:35;;;;;;;1.73;0.82;;;18.80;99.90;;;;;;5058666;28;20133;-72
2023/08/26 12:32:01;;;;;;;1.17;0.80;;;18.80;99.90;;;;;;5052303;28;20542;-72
2023/08/26 12:34:26;;;;;;;1.23;0.90;;;18.80;99.90;;;;;;5050745;28;20055;-72
2023/08/26 12:36:52;;;;;;;2.03;1.30;;;18.70;99.90;;;;;;5050854;28;20131;-75
2023/08/26 12:39:18;;;;;;;4.13;1.02;;;18.70;99.90;;;;;;5062139;28;20174;-72
2023/08/26 12:41:43;;;;;;;1.52;1.17;;;18.60;99.90;;;;;;5032492;28;20052;-73
2023/08/26 12:44:09;;;;;;;0.98;0.90;;;18.70;99.90;;;;;;5046088;28;20052;-73
2023/08/26 12:46:35;;;;;;;1.00;0.85;;;18.70;99.90;;;;;;5038182;28;20078;-72